< < Back
Terminal Aerodrome Forecast


Current Version              Previous Versions:   1  2  3  4  5  6  7  8  9  

Terminal Aerodrome Forecast

667
FTUS42 KFFC 310500 RRA
TAFATL
TAF
KATL 310543Z 3106/0112 VRB03KT P6SM FEW040 BKN100
      TEMPO 3109/3113 4SM BR SCT012
     FM311400 23005KT P6SM SCT025 SCT250
     FM311800 24007KT P6SM SCT060 SCT150
     FM010100 25003KT P6SM FEW050 SCT250=

Latest METAR

665
SAUS70 KWBC 311000 RRG
MTRATL
METAR KATL 310952Z COR 10003KT 10SM BCFG FEW003 SCT250 22/21 A3016 RMK
AO2 SLP203 VIS NW-NE 1/2 T02220211


USA.gov is the U.S. government's official web portal to all federal, state and local government web resources and services.